sensor_id;sensor_type;location;lat;lon;timestamp;P1;durP1;ratioP1;P2;durP2;ratioP2
47309;SDS011;33046;52.270;6.832;2023-05-07T00:01:47;8.90;;;8.20;;
47309;SDS011;33046;52.270;6.832;2023-05-07T00:03:54;9.05;;;8.35;;
47309;SDS011;33046;52.270;6.832;2023-05-07T00:06:01;9.95;;;9.25;;
47309;SDS011;33046;52.270;6.832;2023-05-07T00:08:09;8.77;;;8.18;;
47309;SDS011;33046;52.270;6.832;2023-05-07T00:10:16;9.13;;;8.43;;
47309;SDS011;33046;52.270;6.832;2023-05-07T00:12:23;8.45;;;7.75;;
47309;SDS011;33046;52.270;6.832;2023-05-07T00:14:29;9.95;;;9.05;;
47309;SDS011;33046;52.270;6.832;2023-05-07T00:16:36;10.48;;;8.80;;
47309;SDS011;33046;52.270;6.832;2023-05-07T00:18:43;9.35;;;8.38;;
47309;SDS011;33046;52.270;6.832;2023-05-07T00:20:50;8.63;;;7.93;;
47309;SDS011;33046;52.270;6.832;2023-05-07T00:22:57;9.10;;;8.40;;
47309;SDS011;33046;52.270;6.832;2023-05-07T00:25:05;9.40;;;8.68;;
47309;SDS011;33046;52.270;6.832;2023-05-07T00:27:12;9.60;;;8.73;;
47309;SDS011;33046;52.270;6.832;2023-05-07T00:29:19;9.63;;;8.82;;
47309;SDS011;33046;52.270;6.832;2023-05-07T00:31:26;9.27;;;8.23;;
47309;SDS011;33046;52.270;6.832;2023-05-07T00:33:33;9.52;;;8.73;;
47309;SDS011;33046;52.270;6.832;2023-05-07T00:35:39;10.27;;;9.38;;
47309;SDS011;33046;52.270;6.832;2023-05-07T00:37:48;10.23;;;9.43;;
47309;SDS011;33046;52.270;6.832;2023-05-07T00:39:55;11.02;;;10.05;;
47309;SDS011;33046;52.270;6.832;2023-05-07T00:42:03;10.27;;;9.48;;
47309;SDS011;33046;52.270;6.832;2023-05-07T00:44:10;9.25;;;8.50;;
47309;SDS011;33046;52.270;6.832;2023-05-07T00:46:17;9.98;;;9.05;;
47309;SDS011;33046;52.270;6.832;2023-05-07T00:48:26;9.02;;;8.32;;
47309;SDS011;33046;52.270;6.832;2023-05-07T00:50:33;10.43;;;9.73;;
47309;SDS011;33046;52.270;6.832;2023-05-07T00:52:40;10.45;;;9.55;;
47309;SDS011;33046;52.270;6.832;2023-05-07T00:54:46;10.70;;;9.90;;
47309;SDS011;33046;52.270;6.832;2023-05-07T00:56:54;9.27;;;8.60;;
47309;SDS011;33046;52.270;6.832;2023-05-07T00:59:02;9.23;;;8.63;;
47309;SDS011;33046;52.270;6.832;2023-05-07T01:01:09;9.68;;;8.90;;
47309;SDS011;33046;52.270;6.832;2023-05-07T01:03:16;10.35;;;9.52;;
47309;SDS011;33046;52.270;6.832;2023-05-07T01:05:24;10.43;;;9.52;;
47309;SDS011;33046;52.270;6.832;2023-05-07T01:07:32;10.13;;;9.23;;
47309;SDS011;33046;52.270;6.832;2023-05-07T01:09:40;10.27;;;9.48;;
47309;SDS011;33046;52.270;6.832;2023-05-07T01:11:47;10.75;;;9.75;;
47309;SDS011;33046;52.270;6.832;2023-05-07T01:13:55;10.98;;;10.02;;
47309;SDS011;33046;52.270;6.832;2023-05-07T01:16:04;9.95;;;9.15;;
47309;SDS011;33046;52.270;6.832;2023-05-07T01:18:12;9.90;;;9.20;;
47309;SDS011;33046;52.270;6.832;2023-05-07T01:20:19;9.85;;;9.05;;
47309;SDS011;33046;52.270;6.832;2023-05-07T01:22:30;10.27;;;9.38;;
47309;SDS011;33046;52.270;6.832;2023-05-07T01:24:38;10.18;;;9.38;;
47309;SDS011;33046;52.270;6.832;2023-05-07T01:26:46;11.88;;;10.77;;
47309;SDS011;33046;52.270;6.832;2023-05-07T01:28:55;10.27;;;9.38;;
47309;SDS011;33046;52.270;6.832;2023-05-07T01:31:02;10.23;;;9.32;;
47309;SDS011;33046;52.270;6.832;2023-05-07T01:33:11;10.57;;;9.68;;
47309;SDS011;33046;52.270;6.832;2023-05-07T01:35:22;11.32;;;10.25;;
47309;SDS011;33046;52.270;6.832;2023-05-07T01:37:34;10.18;;;9.18;;
47309;SDS011;33046;52.270;6.832;2023-05-07T01:39:42;11.38;;;10.35;;
47309;SDS011;33046;52.270;6.832;2023-05-07T01:41:49;11.52;;;10.52;;
47309;SDS011;33046;52.270;6.832;2023-05-07T01:43:56;11.68;;;10.57;;
47309;SDS011;33046;52.270;6.832;2023-05-07T01:46:04;11.20;;;10.18;;
47309;SDS011;33046;52.270;6.832;2023-05-07T01:48:11;10.30;;;9.40;;
47309;SDS011;33046;52.270;6.832;2023-05-07T01:50:20;10.25;;;9.25;;
47309;SDS011;33046;52.270;6.832;2023-05-07T01:52:27;9.70;;;8.88;;
47309;SDS011;33046;52.270;6.832;2023-05-07T01:54:36;10.05;;;9.15;;
47309;SDS011;33046;52.270;6.832;2023-05-07T01:56:43;11.45;;;10.27;;
47309;SDS011;33046;52.270;6.832;2023-05-07T01:58:50;11.27;;;9.88;;
47309;SDS011;33046;52.270;6.832;2023-05-07T02:00:58;11.05;;;10.05;;
47309;SDS011;33046;52.270;6.832;2023-05-07T02:03:05;11.75;;;10.75;;
47309;SDS011;33046;52.270;6.832;2023-05-07T02:05:19;11.52;;;10.43;;
47309;SDS011;33046;52.270;6.832;2023-05-07T02:07:33;12.23;;;11.10;;
47309;SDS011;33046;52.270;6.832;2023-05-07T02:09:41;12.80;;;10.85;;
47309;SDS011;33046;52.270;6.832;2023-05-07T02:11:48;12.40;;;11.18;;
47309;SDS011;33046;52.270;6.832;2023-05-07T02:13:57;13.20;;;11.98;;
47309;SDS011;33046;52.270;6.832;2023-05-07T02:16:04;12.98;;;11.68;;
47309;SDS011;33046;52.270;6.832;2023-05-07T02:18:11;13.13;;;11.90;;
47309;SDS011;33046;52.270;6.832;2023-05-07T02:20:18;12.00;;;10.90;;
47309;SDS011;33046;52.270;6.832;2023-05-07T02:22:25;11.52;;;10.52;;
47309;SDS011;33046;52.270;6.832;2023-05-07T02:24:32;12.75;;;11.38;;
47309;SDS011;33046;52.270;6.832;2023-05-07T02:26:40;14.63;;;12.93;;
47309;SDS011;33046;52.270;6.832;2023-05-07T02:28:47;13.00;;;11.70;;
47309;SDS011;33046;52.270;6.832;2023-05-07T02:30:54;13.68;;;12.30;;
47309;SDS011;33046;52.270;6.832;2023-05-07T02:33:01;14.20;;;12.88;;
47309;SDS011;33046;52.270;6.832;2023-05-07T02:35:08;12.98;;;11.90;;
47309;SDS011;33046;52.270;6.832;2023-05-07T02:37:15;13.80;;;12.57;;
47309;SDS011;33046;52.270;6.832;2023-05-07T02:39:22;13.20;;;12.02;;
47309;SDS011;33046;52.270;6.832;2023-05-07T02:41:29;13.15;;;11.80;;
47309;SDS011;33046;52.270;6.832;2023-05-07T02:43:37;14.43;;;13.00;;
47309;SDS011;33046;52.270;6.832;2023-05-07T02:45:44;13.73;;;12.52;;
47309;SDS011;33046;52.270;6.832;2023-05-07T02:47:51;15.05;;;13.75;;
47309;SDS011;33046;52.270;6.832;2023-05-07T02:49:59;15.23;;;13.75;;
47309;SDS011;33046;52.270;6.832;2023-05-07T02:52:05;13.57;;;12.35;;
47309;SDS011;33046;52.270;6.832;2023-05-07T02:54:13;15.27;;;13.88;;
47309;SDS011;33046;52.270;6.832;2023-05-07T02:56:20;15.13;;;13.70;;
47309;SDS011;33046;52.270;6.832;2023-05-07T02:58:27;18.20;;;14.70;;
47309;SDS011;33046;52.270;6.832;2023-05-07T03:00:35;16.52;;;14.80;;
47309;SDS011;33046;52.270;6.832;2023-05-07T03:03:11;15.68;;;14.07;;
47309;SDS011;33046;52.270;6.832;2023-05-07T03:05:18;15.70;;;14.10;;
47309;SDS011;33046;52.270;6.832;2023-05-07T03:07:25;16.20;;;14.73;;
47309;SDS011;33046;52.270;6.832;2023-05-07T03:09:32;15.73;;;14.32;;
47309;SDS011;33046;52.270;6.832;2023-05-07T03:11:39;17.08;;;15.57;;
47309;SDS011;33046;52.270;6.832;2023-05-07T03:13:46;17.10;;;15.30;;
47309;SDS011;33046;52.270;6.832;2023-05-07T03:15:54;15.50;;;14.10;;
47309;SDS011;33046;52.270;6.832;2023-05-07T03:18:01;17.40;;;15.80;;
47309;SDS011;33046;52.270;6.832;2023-05-07T03:20:08;15.88;;;14.50;;
47309;SDS011;33046;52.270;6.832;2023-05-07T03:22:16;16.48;;;15.02;;
47309;SDS011;33046;52.270;6.832;2023-05-07T03:24:23;15.77;;;14.35;;
47309;SDS011;33046;52.270;6.832;2023-05-07T03:26:29;18.20;;;16.35;;
47309;SDS011;33046;52.270;6.832;2023-05-07T03:28:36;16.50;;;14.90;;
47309;SDS011;33046;52.270;6.832;2023-05-07T03:30:47;16.75;;;15.15;;
47309;SDS011;33046;52.270;6.832;2023-05-07T03:32:56;17.67;;;15.30;;
47309;SDS011;33046;52.270;6.832;2023-05-07T03:35:03;17.48;;;15.65;;
47309;SDS011;33046;52.270;6.832;2023-05-07T03:37:10;16.90;;;15.40;;
47309;SDS011;33046;52.270;6.832;2023-05-07T03:39:17;16.70;;;15.20;;
47309;SDS011;33046;52.270;6.832;2023-05-07T03:41:24;18.73;;;16.77;;
47309;SDS011;33046;52.270;6.832;2023-05-07T03:43:31;18.30;;;15.25;;
47309;SDS011;33046;52.270;6.832;2023-05-07T03:45:43;17.00;;;15.43;;
47309;SDS011;33046;52.270;6.832;2023-05-07T03:47:57;18.35;;;16.08;;
47309;SDS011;33046;52.270;6.832;2023-05-07T03:50:04;16.15;;;14.70;;
47309;SDS011;33046;52.270;6.832;2023-05-07T03:52:11;18.08;;;16.35;;
47309;SDS011;33046;52.270;6.832;2023-05-07T03:54:18;17.30;;;15.77;;
47309;SDS011;33046;52.270;6.832;2023-05-07T03:56:26;17.38;;;15.75;;
47309;SDS011;33046;52.270;6.832;2023-05-07T03:58:35;18.23;;;16.42;;
47309;SDS011;33046;52.270;6.832;2023-05-07T04:00:46;17.92;;;16.17;;
47309;SDS011;33046;52.270;6.832;2023-05-07T04:03:02;17.15;;;15.45;;
47309;SDS011;33046;52.270;6.832;2023-05-07T04:05:10;16.85;;;15.25;;
47309;SDS011;33046;52.270;6.832;2023-05-07T04:07:18;17.83;;;16.10;;
47309;SDS011;33046;52.270;6.832;2023-05-07T04:09:28;18.33;;;16.38;;
47309;SDS011;33046;52.270;6.832;2023-05-07T04:11:36;17.40;;;15.80;;
47309;SDS011;33046;52.270;6.832;2023-05-07T04:13:44;18.15;;;16.48;;
47309;SDS011;33046;52.270;6.832;2023-05-07T04:15:50;19.40;;;17.33;;
47309;SDS011;33046;52.270;6.832;2023-05-07T04:17:58;19.85;;;17.70;;
47309;SDS011;33046;52.270;6.832;2023-05-07T04:20:08;17.98;;;16.15;;
47309;SDS011;33046;52.270;6.832;2023-05-07T04:22:16;18.88;;;17.08;;
47309;SDS011;33046;52.270;6.832;2023-05-07T04:24:23;18.35;;;16.55;;
47309;SDS011;33046;52.270;6.832;2023-05-07T04:26:30;18.45;;;16.80;;
47309;SDS011;33046;52.270;6.832;2023-05-07T04:28:37;18.38;;;16.52;;
47309;SDS011;33046;52.270;6.832;2023-05-07T04:30:45;18.10;;;16.20;;
47309;SDS011;33046;52.270;6.832;2023-05-07T04:32:53;18.50;;;16.70;;
47309;SDS011;33046;52.270;6.832;2023-05-07T04:35:01;17.75;;;16.08;;
47309;SDS011;33046;52.270;6.832;2023-05-07T04:37:10;19.48;;;17.48;;
47309;SDS011;33046;52.270;6.832;2023-05-07T04:39:17;18.60;;;16.83;;
47309;SDS011;33046;52.270;6.832;2023-05-07T04:41:26;18.77;;;17.17;;
47309;SDS011;33046;52.270;6.832;2023-05-07T04:43:33;19.70;;;17.90;;
47309;SDS011;33046;52.270;6.832;2023-05-07T04:45:40;20.23;;;18.13;;
47309;SDS011;33046;52.270;6.832;2023-05-07T04:47:47;20.30;;;18.23;;
47309;SDS011;33046;52.270;6.832;2023-05-07T04:49:54;20.63;;;18.52;;
47309;SDS011;33046;52.270;6.832;2023-05-07T04:52:00;20.23;;;18.00;;
47309;SDS011;33046;52.270;6.832;2023-05-07T04:54:09;20.08;;;18.17;;
47309;SDS011;33046;52.270;6.832;2023-05-07T04:56:16;21.65;;;19.45;;
47309;SDS011;33046;52.270;6.832;2023-05-07T04:58:24;20.02;;;18.02;;
47309;SDS011;33046;52.270;6.832;2023-05-07T05:00:31;19.05;;;17.35;;
47309;SDS011;33046;52.270;6.832;2023-05-07T05:02:39;19.98;;;18.08;;
47309;SDS011;33046;52.270;6.832;2023-05-07T05:04:47;21.38;;;19.33;;
47309;SDS011;33046;52.270;6.832;2023-05-07T05:06:54;19.13;;;17.30;;
47309;SDS011;33046;52.270;6.832;2023-05-07T05:09:00;21.52;;;19.42;;
47309;SDS011;33046;52.270;6.832;2023-05-07T05:11:10;23.52;;;20.15;;
47309;SDS011;33046;52.270;6.832;2023-05-07T05:13:17;21.08;;;18.30;;
47309;SDS011;33046;52.270;6.832;2023-05-07T05:15:24;21.80;;;19.63;;
47309;SDS011;33046;52.270;6.832;2023-05-07T05:17:31;23.00;;;18.65;;
47309;SDS011;33046;52.270;6.832;2023-05-07T05:19:38;19.08;;;17.27;;
47309;SDS011;33046;52.270;6.832;2023-05-07T05:21:44;21.45;;;19.42;;
47309;SDS011;33046;52.270;6.832;2023-05-07T05:23:52;22.80;;;20.50;;
47309;SDS011;33046;52.270;6.832;2023-05-07T05:26:02;21.20;;;19.05;;
47309;SDS011;33046;52.270;6.832;2023-05-07T05:28:12;20.98;;;18.83;;
47309;SDS011;33046;52.270;6.832;2023-05-07T05:30:19;22.65;;;19.88;;
47309;SDS011;33046;52.270;6.832;2023-05-07T05:32:26;22.02;;;19.83;;
47309;SDS011;33046;52.270;6.832;2023-05-07T05:34:35;21.50;;;19.50;;
47309;SDS011;33046;52.270;6.832;2023-05-07T05:36:44;21.35;;;19.05;;
47309;SDS011;33046;52.270;6.832;2023-05-07T05:38:52;20.60;;;18.50;;
47309;SDS011;33046;52.270;6.832;2023-05-07T05:41:00;23.27;;;18.80;;
47309;SDS011;33046;52.270;6.832;2023-05-07T05:43:08;20.67;;;18.55;;
47309;SDS011;33046;52.270;6.832;2023-05-07T05:45:18;23.48;;;21.02;;
47309;SDS011;33046;52.270;6.832;2023-05-07T05:47:25;21.67;;;19.50;;
47309;SDS011;33046;52.270;6.832;2023-05-07T05:49:34;22.42;;;20.23;;
47309;SDS011;33046;52.270;6.832;2023-05-07T05:51:43;21.85;;;19.70;;
47309;SDS011;33046;52.270;6.832;2023-05-07T05:53:50;21.50;;;19.40;;
47309;SDS011;33046;52.270;6.832;2023-05-07T05:55:56;20.80;;;18.90;;
47309;SDS011;33046;52.270;6.832;2023-05-07T05:58:03;20.75;;;18.70;;
47309;SDS011;33046;52.270;6.832;2023-05-07T06:00:16;22.60;;;20.35;;
47309;SDS011;33046;52.270;6.832;2023-05-07T06:02:24;20.80;;;18.88;;
47309;SDS011;33046;52.270;6.832;2023-05-07T06:04:31;21.35;;;19.35;;
47309;SDS011;33046;52.270;6.832;2023-05-07T06:06:38;24.48;;;19.50;;
47309;SDS011;33046;52.270;6.832;2023-05-07T06:08:45;21.25;;;19.13;;
47309;SDS011;33046;52.270;6.832;2023-05-07T06:10:56;21.10;;;19.00;;
47309;SDS011;33046;52.270;6.832;2023-05-07T06:13:04;22.33;;;19.98;;
47309;SDS011;33046;52.270;6.832;2023-05-07T06:15:13;20.65;;;18.55;;
47309;SDS011;33046;52.270;6.832;2023-05-07T06:17:22;21.27;;;19.33;;
47309;SDS011;33046;52.270;6.832;2023-05-07T06:19:29;21.90;;;19.60;;
47309;SDS011;33046;52.270;6.832;2023-05-07T06:21:38;22.80;;;20.60;;
47309;SDS011;33046;52.270;6.832;2023-05-07T06:23:45;21.00;;;19.10;;
47309;SDS011;33046;52.270;6.832;2023-05-07T06:25:52;23.70;;;21.30;;
47309;SDS011;33046;52.270;6.832;2023-05-07T06:28:04;22.23;;;19.92;;
47309;SDS011;33046;52.270;6.832;2023-05-07T06:30:13;21.80;;;19.67;;
47309;SDS011;33046;52.270;6.832;2023-05-07T06:32:21;21.63;;;19.48;;
47309;SDS011;33046;52.270;6.832;2023-05-07T06:34:29;21.38;;;19.38;;
47309;SDS011;33046;52.270;6.832;2023-05-07T06:36:36;22.92;;;20.77;;
47309;SDS011;33046;52.270;6.832;2023-05-07T06:38:52;22.77;;;20.48;;
47309;SDS011;33046;52.270;6.832;2023-05-07T06:40:59;22.23;;;20.13;;
47309;SDS011;33046;52.270;6.832;2023-05-07T06:43:06;21.85;;;19.63;;
47309;SDS011;33046;52.270;6.832;2023-05-07T06:45:21;22.55;;;20.25;;
47309;SDS011;33046;52.270;6.832;2023-05-07T06:47:29;22.60;;;20.27;;
47309;SDS011;33046;52.270;6.832;2023-05-07T06:49:36;21.63;;;19.63;;
47309;SDS011;33046;52.270;6.832;2023-05-07T06:51:43;21.42;;;19.42;;
47309;SDS011;33046;52.270;6.832;2023-05-07T06:53:49;24.35;;;21.88;;
47309;SDS011;33046;52.270;6.832;2023-05-07T06:55:56;22.45;;;20.15;;
47309;SDS011;33046;52.270;6.832;2023-05-07T06:58:04;21.75;;;19.58;;
47309;SDS011;33046;52.270;6.832;2023-05-07T07:00:11;22.75;;;19.98;;
47309;SDS011;33046;52.270;6.832;2023-05-07T07:02:27;21.40;;;19.40;;
47309;SDS011;33046;52.270;6.832;2023-05-07T07:04:35;21.98;;;19.88;;
47309;SDS011;33046;52.270;6.832;2023-05-07T07:06:46;22.17;;;20.08;;
47309;SDS011;33046;52.270;6.832;2023-05-07T07:08:53;22.48;;;20.08;;
47309;SDS011;33046;52.270;6.832;2023-05-07T07:11:00;21.25;;;19.15;;
47309;SDS011;33046;52.270;6.832;2023-05-07T07:13:07;21.83;;;19.73;;
47309;SDS011;33046;52.270;6.832;2023-05-07T07:15:14;22.83;;;20.42;;
47309;SDS011;33046;52.270;6.832;2023-05-07T07:17:22;20.02;;;18.13;;
47309;SDS011;33046;52.270;6.832;2023-05-07T07:19:30;21.48;;;19.58;;
47309;SDS011;33046;52.270;6.832;2023-05-07T07:21:38;21.80;;;19.65;;
47309;SDS011;33046;52.270;6.832;2023-05-07T07:23:44;22.10;;;19.80;;
47309;SDS011;33046;52.270;6.832;2023-05-07T07:25:51;21.52;;;19.42;;
47309;SDS011;33046;52.270;6.832;2023-05-07T07:27:59;21.63;;;18.58;;
47309;SDS011;33046;52.270;6.832;2023-05-07T07:30:07;20.40;;;18.40;;
47309;SDS011;33046;52.270;6.832;2023-05-07T07:32:16;21.02;;;18.98;;
47309;SDS011;33046;52.270;6.832;2023-05-07T07:34:24;20.88;;;18.90;;
47309;SDS011;33046;52.270;6.832;2023-05-07T07:36:32;19.98;;;18.15;;
47309;SDS011;33046;52.270;6.832;2023-05-07T07:38:45;19.98;;;18.08;;
47309;SDS011;33046;52.270;6.832;2023-05-07T07:40:51;21.65;;;19.58;;
47309;SDS011;33046;52.270;6.832;2023-05-07T07:42:58;20.17;;;18.13;;
47309;SDS011;33046;52.270;6.832;2023-05-07T07:45:06;19.83;;;17.92;;
47309;SDS011;33046;52.270;6.832;2023-05-07T07:47:17;19.63;;;17.52;;
47309;SDS011;33046;52.270;6.832;2023-05-07T07:49:26;21.08;;;19.17;;
47309;SDS011;33046;52.270;6.832;2023-05-07T07:51:35;20.67;;;18.55;;
47309;SDS011;33046;52.270;6.832;2023-05-07T07:53:42;20.25;;;18.25;;
47309;SDS011;33046;52.270;6.832;2023-05-07T07:55:49;19.98;;;18.05;;
47309;SDS011;33046;52.270;6.832;2023-05-07T07:57:59;20.75;;;18.63;;
47309;SDS011;33046;52.270;6.832;2023-05-07T08:00:06;20.50;;;18.58;;
47309;SDS011;33046;52.270;6.832;2023-05-07T08:02:21;19.30;;;17.50;;
47309;SDS011;33046;52.270;6.832;2023-05-07T08:04:29;19.88;;;17.98;;
47309;SDS011;33046;52.270;6.832;2023-05-07T08:06:41;21.00;;;19.08;;
47309;SDS011;33046;52.270;6.832;2023-05-07T08:08:49;20.08;;;18.38;;
47309;SDS011;33046;52.270;6.832;2023-05-07T08:10:56;18.38;;;16.52;;
47309;SDS011;33046;52.270;6.832;2023-05-07T08:13:10;20.25;;;18.27;;
47309;SDS011;33046;52.270;6.832;2023-05-07T08:15:18;19.15;;;17.25;;
47309;SDS011;33046;52.270;6.832;2023-05-07T08:17:26;18.73;;;16.95;;
47309;SDS011;33046;52.270;6.832;2023-05-07T08:19:34;20.20;;;18.25;;
47309;SDS011;33046;52.270;6.832;2023-05-07T08:21:44;17.80;;;16.15;;
47309;SDS011;33046;52.270;6.832;2023-05-07T08:23:51;19.23;;;17.17;;
47309;SDS011;33046;52.270;6.832;2023-05-07T08:25:58;18.00;;;16.40;;
47309;SDS011;33046;52.270;6.832;2023-05-07T08:28:05;18.95;;;17.05;;
47309;SDS011;33046;52.270;6.832;2023-05-07T08:30:12;20.27;;;18.23;;
47309;SDS011;33046;52.270;6.832;2023-05-07T08:32:20;19.10;;;17.20;;
47309;SDS011;33046;52.270;6.832;2023-05-07T08:34:27;18.35;;;16.65;;
47309;SDS011;33046;52.270;6.832;2023-05-07T08:36:35;19.75;;;16.40;;
47309;SDS011;33046;52.270;6.832;2023-05-07T08:38:44;18.05;;;16.27;;
47309;SDS011;33046;52.270;6.832;2023-05-07T08:40:51;18.85;;;16.92;;
47309;SDS011;33046;52.270;6.832;2023-05-07T08:42:59;18.40;;;16.63;;
47309;SDS011;33046;52.270;6.832;2023-05-07T08:45:08;16.80;;;15.13;;
47309;SDS011;33046;52.270;6.832;2023-05-07T08:47:19;16.65;;;15.00;;
47309;SDS011;33046;52.270;6.832;2023-05-07T08:49:30;16.40;;;15.05;;
47309;SDS011;33046;52.270;6.832;2023-05-07T08:51:37;17.75;;;16.15;;
47309;SDS011;33046;52.270;6.832;2023-05-07T08:53:46;17.02;;;15.23;;
47309;SDS011;33046;52.270;6.832;2023-05-07T08:58:04;17.48;;;15.80;;
47309;SDS011;33046;52.270;6.832;2023-05-07T09:00:13;17.88;;;16.38;;
47309;SDS011;33046;52.270;6.832;2023-05-07T09:02:22;17.25;;;15.65;;
47309;SDS011;33046;52.270;6.832;2023-05-07T09:04:29;17.50;;;16.05;;
47309;SDS011;33046;52.270;6.832;2023-05-07T09:06:36;16.00;;;14.50;;
47309;SDS011;33046;52.270;6.832;2023-05-07T09:08:45;16.35;;;14.85;;
47309;SDS011;33046;52.270;6.832;2023-05-07T09:10:56;17.15;;;15.55;;
47309;SDS011;33046;52.270;6.832;2023-05-07T09:13:03;16.67;;;15.18;;
47309;SDS011;33046;52.270;6.832;2023-05-07T09:15:10;15.80;;;14.38;;
47309;SDS011;33046;52.270;6.832;2023-05-07T09:17:17;15.82;;;14.32;;
47309;SDS011;33046;52.270;6.832;2023-05-07T09:19:24;14.77;;;13.38;;
47309;SDS011;33046;52.270;6.832;2023-05-07T09:21:33;14.80;;;13.30;;
47309;SDS011;33046;52.270;6.832;2023-05-07T09:23:46;14.60;;;13.30;;
47309;SDS011;33046;52.270;6.832;2023-05-07T09:25:54;15.38;;;13.98;;
47309;SDS011;33046;52.270;6.832;2023-05-07T09:28:08;16.00;;;14.57;;
47309;SDS011;33046;52.270;6.832;2023-05-07T09:30:15;15.68;;;14.27;;
47309;SDS011;33046;52.270;6.832;2023-05-07T09:32:22;14.52;;;13.25;;
47309;SDS011;33046;52.270;6.832;2023-05-07T09:34:30;14.90;;;13.52;;
47309;SDS011;33046;52.270;6.832;2023-05-07T09:36:38;14.57;;;12.90;;
47309;SDS011;33046;52.270;6.832;2023-05-07T09:38:46;15.30;;;13.80;;
47309;SDS011;33046;52.270;6.832;2023-05-07T09:41:01;15.13;;;13.82;;
47309;SDS011;33046;52.270;6.832;2023-05-07T09:43:10;14.63;;;13.32;;
47309;SDS011;33046;52.270;6.832;2023-05-07T09:45:24;14.60;;;12.77;;
47309;SDS011;33046;52.270;6.832;2023-05-07T09:47:32;14.30;;;12.93;;
47309;SDS011;33046;52.270;6.832;2023-05-07T09:49:42;13.82;;;12.65;;
47309;SDS011;33046;52.270;6.832;2023-05-07T09:51:56;13.90;;;12.70;;
47309;SDS011;33046;52.270;6.832;2023-05-07T09:54:06;13.52;;;12.20;;
47309;SDS011;33046;52.270;6.832;2023-05-07T09:56:17;14.55;;;13.25;;
47309;SDS011;33046;52.270;6.832;2023-05-07T09:58:25;13.82;;;12.45;;
47309;SDS011;33046;52.270;6.832;2023-05-07T10:00:33;13.23;;;12.02;;
47309;SDS011;33046;52.270;6.832;2023-05-07T10:02:48;12.40;;;11.30;;
47309;SDS011;33046;52.270;6.832;2023-05-07T10:05:02;14.85;;;13.45;;
47309;SDS011;33046;52.270;6.832;2023-05-07T10:07:13;14.48;;;13.18;;
47309;SDS011;33046;52.270;6.832;2023-05-07T10:09:21;14.35;;;13.00;;
47309;SDS011;33046;52.270;6.832;2023-05-07T10:11:30;15.18;;;13.80;;
47309;SDS011;33046;52.270;6.832;2023-05-07T10:13:38;14.45;;;13.05;;
47309;SDS011;33046;52.270;6.832;2023-05-07T10:15:48;14.05;;;12.45;;
47309;SDS011;33046;52.270;6.832;2023-05-07T10:17:57;14.55;;;12.30;;
47309;SDS011;33046;52.270;6.832;2023-05-07T10:20:05;13.38;;;12.10;;
47309;SDS011;33046;52.270;6.832;2023-05-07T10:22:14;14.38;;;12.98;;
47309;SDS011;33046;52.270;6.832;2023-05-07T10:24:26;14.35;;;12.93;;
47309;SDS011;33046;52.270;6.832;2023-05-07T10:26:39;14.43;;;12.93;;
47309;SDS011;33046;52.270;6.832;2023-05-07T10:28:49;13.27;;;12.23;;
47309;SDS011;33046;52.270;6.832;2023-05-07T10:31:19;14.73;;;13.23;;
47309;SDS011;33046;52.270;6.832;2023-05-07T10:33:42;13.85;;;12.63;;
47309;SDS011;33046;52.270;6.832;2023-05-07T10:35:55;13.38;;;10.23;;
47309;SDS011;33046;52.270;6.832;2023-05-07T10:38:05;13.23;;;11.95;;
47309;SDS011;33046;52.270;6.832;2023-05-07T10:40:16;14.40;;;13.00;;
47309;SDS011;33046;52.270;6.832;2023-05-07T10:42:24;11.98;;;10.88;;
47309;SDS011;33046;52.270;6.832;2023-05-07T10:44:33;11.55;;;10.35;;
47309;SDS011;33046;52.270;6.832;2023-05-07T10:46:48;11.45;;;10.55;;
47309;SDS011;33046;52.270;6.832;2023-05-07T10:49:13;12.60;;;11.50;;
47309;SDS011;33046;52.270;6.832;2023-05-07T10:51:34;12.57;;;11.38;;
47309;SDS011;33046;52.270;6.832;2023-05-07T10:54:23;11.63;;;10.55;;
47309;SDS011;33046;52.270;6.832;2023-05-07T10:56:43;12.15;;;11.07;;
47309;SDS011;33046;52.270;6.832;2023-05-07T10:58:59;13.15;;;11.93;;
47309;SDS011;33046;52.270;6.832;2023-05-07T11:01:53;12.25;;;11.05;;
47309;SDS011;33046;52.270;6.832;2023-05-07T11:04:14;11.60;;;10.38;;
47309;SDS011;33046;52.270;6.832;2023-05-07T11:06:30;11.68;;;10.65;;
47309;SDS011;33046;52.270;6.832;2023-05-07T11:08:52;11.38;;;10.43;;
47309;SDS011;33046;52.270;6.832;2023-05-07T11:11:02;12.93;;;11.75;;
47309;SDS011;33046;52.270;6.832;2023-05-07T11:15:35;12.50;;;11.35;;
47309;SDS011;33046;52.270;6.832;2023-05-07T11:17:53;14.43;;;12.13;;
47309;SDS011;33046;52.270;6.832;2023-05-07T11:20:02;12.52;;;11.40;;
47309;SDS011;33046;52.270;6.832;2023-05-07T11:24:57;13.95;;;12.38;;
47309;SDS011;33046;52.270;6.832;2023-05-07T11:27:05;14.80;;;13.52;;
47309;SDS011;33046;52.270;6.832;2023-05-07T11:29:13;13.43;;;12.23;;
47309;SDS011;33046;52.270;6.832;2023-05-07T11:31:24;12.05;;;10.93;;
47309;SDS011;33046;52.270;6.832;2023-05-07T11:33:33;12.98;;;11.77;;
47309;SDS011;33046;52.270;6.832;2023-05-07T11:35:43;12.68;;;11.48;;
47309;SDS011;33046;52.270;6.832;2023-05-07T11:37:57;11.20;;;10.18;;
47309;SDS011;33046;52.270;6.832;2023-05-07T11:40:06;11.70;;;10.57;;
47309;SDS011;33046;52.270;6.832;2023-05-07T11:42:24;12.40;;;11.27;;
47309;SDS011;33046;52.270;6.832;2023-05-07T11:44:41;12.00;;;10.70;;
47309;SDS011;33046;52.270;6.832;2023-05-07T11:46:50;13.77;;;12.38;;
47309;SDS011;33046;52.270;6.832;2023-05-07T11:48:57;11.35;;;10.30;;
47309;SDS011;33046;52.270;6.832;2023-05-07T11:51:05;13.20;;;12.10;;
47309;SDS011;33046;52.270;6.832;2023-05-07T11:53:12;13.55;;;12.23;;
47309;SDS011;33046;52.270;6.832;2023-05-07T11:55:19;11.98;;;10.77;;
47309;SDS011;33046;52.270;6.832;2023-05-07T11:57:26;9.88;;;8.90;;
47309;SDS011;33046;52.270;6.832;2023-05-07T11:59:38;12.57;;;11.25;;
47309;SDS011;33046;52.270;6.832;2023-05-07T12:01:45;12.20;;;11.07;;
47309;SDS011;33046;52.270;6.832;2023-05-07T12:03:54;12.65;;;11.52;;
47309;SDS011;33046;52.270;6.832;2023-05-07T12:06:00;11.93;;;10.85;;
47309;SDS011;33046;52.270;6.832;2023-05-07T12:08:07;12.18;;;10.93;;
47309;SDS011;33046;52.270;6.832;2023-05-07T12:10:14;11.63;;;10.60;;
47309;SDS011;33046;52.270;6.832;2023-05-07T12:12:21;11.70;;;10.70;;
47309;SDS011;33046;52.270;6.832;2023-05-07T12:14:28;11.93;;;10.70;;
47309;SDS011;33046;52.270;6.832;2023-05-07T12:16:35;10.20;;;9.38;;
47309;SDS011;33046;52.270;6.832;2023-05-07T12:18:41;10.10;;;9.13;;
47309;SDS011;33046;52.270;6.832;2023-05-07T12:20:50;8.38;;;7.63;;
47309;SDS011;33046;52.270;6.832;2023-05-07T12:22:57;7.43;;;6.57;;
47309;SDS011;33046;52.270;6.832;2023-05-07T12:25:04;7.50;;;6.75;;
47309;SDS011;33046;52.270;6.832;2023-05-07T12:27:12;7.00;;;6.20;;
47309;SDS011;33046;52.270;6.832;2023-05-07T12:29:21;9.15;;;6.68;;
47309;SDS011;33046;52.270;6.832;2023-05-07T12:31:28;7.50;;;6.78;;
47309;SDS011;33046;52.270;6.832;2023-05-07T12:33:35;9.38;;;6.10;;
47309;SDS011;33046;52.270;6.832;2023-05-07T12:35:42;8.10;;;7.10;;
47309;SDS011;33046;52.270;6.832;2023-05-07T12:37:55;7.03;;;6.43;;
47309;SDS011;33046;52.270;6.832;2023-05-07T12:42:14;9.27;;;7.65;;
47309;SDS011;33046;52.270;6.832;2023-05-07T12:44:22;9.27;;;8.48;;
47309;SDS011;33046;52.270;6.832;2023-05-07T12:46:29;8.70;;;8.00;;
47309;SDS011;33046;52.270;6.832;2023-05-07T12:48:36;7.47;;;6.78;;